sensor_id;sensor_type;location;lat;lon;timestamp;pressure;altitude;pressure_sealevel;temperature;humidity
53889;BME280;41337;51.400;-2.342;2023-08-31T00:01:03;100742.28;;;11.51;82.88
53889;BME280;41337;51.400;-2.342;2023-08-31T00:06:07;100750.72;;;11.46;83.50
53889;BME280;41337;51.400;-2.342;2023-08-31T00:16:12;100730.00;;;11.43;83.05
53889;BME280;41337;51.400;-2.342;2023-08-31T00:21:18;100734.13;;;11.38;82.86
53889;BME280;41337;51.400;-2.342;2023-08-31T00:26:19;100733.03;;;11.32;82.82
53889;BME280;41337;51.400;-2.342;2023-08-31T00:31:21;100731.91;;;11.27;82.61
53889;BME280;41337;51.400;-2.342;2023-08-31T00:36:26;100727.97;;;11.23;82.99
53889;BME280;41337;51.400;-2.342;2023-08-31T00:41:29;100729.94;;;11.21;83.25
53889;BME280;41337;51.400;-2.342;2023-08-31T00:46:31;100711.56;;;11.13;82.61
53889;BME280;41337;51.400;-2.342;2023-08-31T00:51:33;100716.91;;;10.96;83.50
53889;BME280;41337;51.400;-2.342;2023-08-31T00:56:37;100705.25;;;10.91;84.42
53889;BME280;41337;51.400;-2.342;2023-08-31T01:13:00;100710.19;;;10.94;83.49
53889;BME280;41337;51.400;-2.342;2023-08-31T01:18:04;100710.69;;;10.89;83.02
53889;BME280;41337;51.400;-2.342;2023-08-31T01:23:19;100721.31;;;10.73;83.99
53889;BME280;41337;51.400;-2.342;2023-08-31T01:28:24;100709.47;;;10.69;84.78
53889;BME280;41337;51.400;-2.342;2023-08-31T01:33:25;100709.94;;;10.73;85.33
53889;BME280;41337;51.400;-2.342;2023-08-31T01:38:28;100701.34;;;10.79;85.31
53889;BME280;41337;51.400;-2.342;2023-08-31T01:43:33;100708.59;;;10.85;84.94
53889;BME280;41337;51.400;-2.342;2023-08-31T01:48:39;100696.41;;;10.84;84.74
53889;BME280;41337;51.400;-2.342;2023-08-31T01:53:41;100681.81;;;10.73;84.57
53889;BME280;41337;51.400;-2.342;2023-08-31T01:58:43;100685.59;;;10.71;85.28
53889;BME280;41337;51.400;-2.342;2023-08-31T02:03:44;100689.19;;;10.78;85.14
53889;BME280;41337;51.400;-2.342;2023-08-31T02:08:47;100691.66;;;10.79;84.52
53889;BME280;41337;51.400;-2.342;2023-08-31T02:13:51;100682.63;;;10.74;85.17
53889;BME280;41337;51.400;-2.342;2023-08-31T02:18:54;100677.19;;;10.75;85.31
53889;BME280;41337;51.400;-2.342;2023-08-31T02:23:54;100675.69;;;10.81;85.04
53889;BME280;41337;51.400;-2.342;2023-08-31T02:28:55;100665.28;;;10.87;85.29
53889;BME280;41337;51.400;-2.342;2023-08-31T02:33:59;100662.66;;;10.87;85.27
53889;BME280;41337;51.400;-2.342;2023-08-31T02:39:00;100662.50;;;10.89;85.79
53889;BME280;41337;51.400;-2.342;2023-08-31T02:44:01;100648.81;;;10.93;85.37
53889;BME280;41337;51.400;-2.342;2023-08-31T02:49:02;100652.44;;;10.92;85.11
53889;BME280;41337;51.400;-2.342;2023-08-31T02:54:06;100648.84;;;10.85;84.36
53889;BME280;41337;51.400;-2.342;2023-08-31T02:59:08;100649.69;;;10.78;85.05
53889;BME280;41337;51.400;-2.342;2023-08-31T03:04:09;100653.66;;;10.74;84.60
53889;BME280;41337;51.400;-2.342;2023-08-31T03:09:10;100646.50;;;10.60;85.21
53889;BME280;41337;51.400;-2.342;2023-08-31T03:14:11;100646.66;;;10.58;85.62
53889;BME280;41337;51.400;-2.342;2023-08-31T03:19:12;100653.75;;;10.58;85.12
53889;BME280;41337;51.400;-2.342;2023-08-31T03:24:15;100643.91;;;10.51;85.82
53889;BME280;41337;51.400;-2.342;2023-08-31T03:29:15;100650.31;;;10.49;85.87
53889;BME280;41337;51.400;-2.342;2023-08-31T03:34:17;100649.84;;;10.45;86.60
53889;BME280;41337;51.400;-2.342;2023-08-31T03:39:18;100640.97;;;10.46;87.38
53889;BME280;41337;51.400;-2.342;2023-08-31T03:44:20;100647.19;;;10.53;87.28
53889;BME280;41337;51.400;-2.342;2023-08-31T03:49:22;100654.22;;;10.61;86.34
53889;BME280;41337;51.400;-2.342;2023-08-31T03:54:50;100653.75;;;10.58;86.26
53889;BME280;41337;51.400;-2.342;2023-08-31T03:59:52;100646.16;;;10.63;87.08
53889;BME280;41337;51.400;-2.342;2023-08-31T04:04:52;100647.63;;;10.65;87.11
53889;BME280;41337;51.400;-2.342;2023-08-31T04:09:53;100647.09;;;10.70;86.52
53889;BME280;41337;51.400;-2.342;2023-08-31T04:14:54;100653.69;;;10.66;86.54
53889;BME280;41337;51.400;-2.342;2023-08-31T04:19:55;100642.19;;;10.67;86.62
53889;BME280;41337;51.400;-2.342;2023-08-31T04:24:57;100651.56;;;10.69;86.92
53889;BME280;41337;51.400;-2.342;2023-08-31T04:30:02;100652.50;;;10.76;86.92
53889;BME280;41337;51.400;-2.342;2023-08-31T04:35:04;100656.09;;;10.83;86.67
53889;BME280;41337;51.400;-2.342;2023-08-31T04:40:20;100651.13;;;10.88;86.40
53889;BME280;41337;51.400;-2.342;2023-08-31T04:45:21;100664.59;;;10.93;86.68
53889;BME280;41337;51.400;-2.342;2023-08-31T04:50:29;100657.50;;;11.02;86.54
53889;BME280;41337;51.400;-2.342;2023-08-31T04:55:30;100652.03;;;11.04;86.22
53889;BME280;41337;51.400;-2.342;2023-08-31T05:00:44;100643.97;;;11.05;86.20
53889;BME280;41337;51.400;-2.342;2023-08-31T05:05:49;100649.22;;;11.05;86.47
53889;BME280;41337;51.400;-2.342;2023-08-31T05:10:49;100647.94;;;11.01;86.59
53889;BME280;41337;51.400;-2.342;2023-08-31T05:15:50;100649.28;;;10.97;87.07
53889;BME280;41337;51.400;-2.342;2023-08-31T05:20:54;100650.94;;;10.98;87.27
53889;BME280;41337;51.400;-2.342;2023-08-31T05:25:58;100647.28;;;10.99;87.40
53889;BME280;41337;51.400;-2.342;2023-08-31T05:31:01;100648.41;;;11.05;87.97
53889;BME280;41337;51.400;-2.342;2023-08-31T05:36:04;100637.00;;;11.12;88.99
53889;BME280;41337;51.400;-2.342;2023-08-31T05:41:14;100635.31;;;11.19;90.16
53889;BME280;41337;51.400;-2.342;2023-08-31T05:46:21;100639.56;;;11.20;91.38
53889;BME280;41337;51.400;-2.342;2023-08-31T05:51:25;100636.00;;;11.13;91.78
53889;BME280;41337;51.400;-2.342;2023-08-31T05:56:26;100638.75;;;10.97;94.88
53889;BME280;41337;51.400;-2.342;2023-08-31T06:01:27;100633.84;;;10.94;96.20
53889;BME280;41337;51.400;-2.342;2023-08-31T06:06:28;100628.91;;;10.91;95.97
53889;BME280;41337;51.400;-2.342;2023-08-31T06:11:31;100631.53;;;10.91;97.98
53889;BME280;41337;51.400;-2.342;2023-08-31T06:16:52;100632.13;;;11.01;99.66
53889;BME280;41337;51.400;-2.342;2023-08-31T06:27:16;100632.69;;;11.19;100.00
53889;BME280;41337;51.400;-2.342;2023-08-31T06:32:18;100639.25;;;11.23;100.00
53889;BME280;41337;51.400;-2.342;2023-08-31T06:37:46;100649.88;;;11.30;99.73
53889;BME280;41337;51.400;-2.342;2023-08-31T06:42:50;100646.94;;;11.33;99.58
53889;BME280;41337;51.400;-2.342;2023-08-31T06:47:51;100652.34;;;11.31;100.00
53889;BME280;41337;51.400;-2.342;2023-08-31T06:58:03;100655.69;;;11.48;100.00
53889;BME280;41337;51.400;-2.342;2023-08-31T07:03:08;100653.53;;;11.52;100.00
53889;BME280;41337;51.400;-2.342;2023-08-31T07:08:12;100648.72;;;11.55;100.00
53889;BME280;41337;51.400;-2.342;2023-08-31T07:13:13;100644.84;;;11.66;100.00
53889;BME280;41337;51.400;-2.342;2023-08-31T07:18:14;100643.09;;;11.81;100.00
53889;BME280;41337;51.400;-2.342;2023-08-31T07:23:15;100650.09;;;11.88;100.00
53889;BME280;41337;51.400;-2.342;2023-08-31T07:34:17;100644.84;;;12.03;100.00
53889;BME280;41337;51.400;-2.342;2023-08-31T07:39:25;100648.84;;;12.14;100.00
53889;BME280;41337;51.400;-2.342;2023-08-31T07:44:28;100649.97;;;12.19;100.00
53889;BME280;41337;51.400;-2.342;2023-08-31T07:49:29;100649.69;;;12.29;100.00
53889;BME280;41337;51.400;-2.342;2023-08-31T07:54:30;100637.50;;;12.28;100.00
53889;BME280;41337;51.400;-2.342;2023-08-31T07:59:34;100634.78;;;12.21;100.00
53889;BME280;41337;51.400;-2.342;2023-08-31T08:04:35;100633.69;;;12.30;100.00
53889;BME280;41337;51.400;-2.342;2023-08-31T08:09:36;100631.13;;;12.37;100.00
53889;BME280;41337;51.400;-2.342;2023-08-31T08:14:38;100634.00;;;12.57;100.00
53889;BME280;41337;51.400;-2.342;2023-08-31T08:19:39;100633.34;;;12.69;100.00
53889;BME280;41337;51.400;-2.342;2023-08-31T08:25:06;100634.78;;;12.87;100.00
53889;BME280;41337;51.400;-2.342;2023-08-31T08:30:07;100634.66;;;12.95;100.00
53889;BME280;41337;51.400;-2.342;2023-08-31T08:35:09;100631.25;;;13.15;100.00
53889;BME280;41337;51.400;-2.342;2023-08-31T08:40:13;100627.19;;;13.34;100.00
53889;BME280;41337;51.400;-2.342;2023-08-31T08:45:15;100631.78;;;13.47;100.00
53889;BME280;41337;51.400;-2.342;2023-08-31T08:55:42;100621.81;;;13.70;100.00
53889;BME280;41337;51.400;-2.342;2023-08-31T09:01:13;100625.81;;;13.87;100.00
53889;BME280;41337;51.400;-2.342;2023-08-31T09:06:17;100630.38;;;14.00;100.00
53889;BME280;41337;51.400;-2.342;2023-08-31T09:11:21;100628.84;;;14.18;100.00
53889;BME280;41337;51.400;-2.342;2023-08-31T09:16:27;100625.44;;;14.25;100.00
53889;BME280;41337;51.400;-2.342;2023-08-31T09:21:36;100625.16;;;14.41;100.00
53889;BME280;41337;51.400;-2.342;2023-08-31T09:26:37;100620.28;;;14.44;99.55
53889;BME280;41337;51.400;-2.342;2023-08-31T09:31:42;100629.94;;;14.31;97.43
53889;BME280;41337;51.400;-2.342;2023-08-31T09:36:44;100626.69;;;14.29;97.30
53889;BME280;41337;51.400;-2.342;2023-08-31T09:41:55;100614.84;;;14.25;92.25
53889;BME280;41337;51.400;-2.342;2023-08-31T09:46:57;100611.28;;;14.39;96.59
53889;BME280;41337;51.400;-2.342;2023-08-31T09:52:01;100617.28;;;14.60;93.77
53889;BME280;41337;51.400;-2.342;2023-08-31T09:57:05;100609.34;;;14.60;91.00
53889;BME280;41337;51.400;-2.342;2023-08-31T10:02:06;100606.47;;;14.55;92.04
53889;BME280;41337;51.400;-2.342;2023-08-31T10:07:08;100600.09;;;14.43;93.46
53889;BME280;41337;51.400;-2.342;2023-08-31T10:12:14;100605.59;;;14.42;92.88
53889;BME280;41337;51.400;-2.342;2023-08-31T10:17:16;100595.94;;;14.28;92.62
53889;BME280;41337;51.400;-2.342;2023-08-31T10:22:17;100595.00;;;14.42;95.68
53889;BME280;41337;51.400;-2.342;2023-08-31T10:27:21;100595.06;;;14.55;93.44
53889;BME280;41337;51.400;-2.342;2023-08-31T10:32:22;100589.56;;;14.56;92.55
53889;BME280;41337;51.400;-2.342;2023-08-31T10:37:23;100574.94;;;14.67;92.42
53889;BME280;41337;51.400;-2.342;2023-08-31T10:42:27;100581.84;;;14.61;94.19
53889;BME280;41337;51.400;-2.342;2023-08-31T10:47:41;100579.22;;;14.68;94.65
53889;BME280;41337;51.400;-2.342;2023-08-31T10:52:45;100576.81;;;14.80;94.49
53889;BME280;41337;51.400;-2.342;2023-08-31T10:57:49;100570.50;;;14.94;95.47
53889;BME280;41337;51.400;-2.342;2023-08-31T11:02:51;100559.75;;;15.22;94.04
53889;BME280;41337;51.400;-2.342;2023-08-31T11:07:52;100559.75;;;15.02;93.84
53889;BME280;41337;51.400;-2.342;2023-08-31T11:12:54;100573.44;;;15.19;94.59
53889;BME280;41337;51.400;-2.342;2023-08-31T11:17:57;100561.19;;;15.24;94.55
53889;BME280;41337;51.400;-2.342;2023-08-31T11:22:58;100560.34;;;15.24;96.31
53889;BME280;41337;51.400;-2.342;2023-08-31T11:28:01;100565.88;;;15.35;96.96
53889;BME280;41337;51.400;-2.342;2023-08-31T11:33:08;100562.63;;;15.46;96.37
53889;BME280;41337;51.400;-2.342;2023-08-31T11:38:12;100567.13;;;15.59;97.35
53889;BME280;41337;51.400;-2.342;2023-08-31T11:43:15;100558.53;;;15.77;95.87
53889;BME280;41337;51.400;-2.342;2023-08-31T11:48:16;100559.13;;;15.79;93.77
53889;BME280;41337;51.400;-2.342;2023-08-31T11:53:18;100546.09;;;15.71;93.70
53889;BME280;41337;51.400;-2.342;2023-08-31T11:58:22;100557.72;;;15.76;93.96
53889;BME280;41337;51.400;-2.342;2023-08-31T12:03:25;100545.06;;;15.39;94.12
53889;BME280;41337;51.400;-2.342;2023-08-31T12:08:27;100545.47;;;15.49;96.30
53889;BME280;41337;51.400;-2.342;2023-08-31T12:13:29;100554.88;;;15.71;96.71
53889;BME280;41337;51.400;-2.342;2023-08-31T12:18:30;100547.50;;;15.86;95.71
53889;BME280;41337;51.400;-2.342;2023-08-31T12:23:34;100554.44;;;15.74;94.38
53889;BME280;41337;51.400;-2.342;2023-08-31T12:28:35;100545.50;;;15.69;94.78
53889;BME280;41337;51.400;-2.342;2023-08-31T12:33:36;100544.25;;;15.78;93.93
53889;BME280;41337;51.400;-2.342;2023-08-31T12:38:36;100534.25;;;15.86;96.79
53889;BME280;41337;51.400;-2.342;2023-08-31T12:43:38;100535.97;;;16.19;95.96
53889;BME280;41337;51.400;-2.342;2023-08-31T12:48:39;100532.41;;;16.38;96.35
53889;BME280;41337;51.400;-2.342;2023-08-31T12:53:40;100543.41;;;16.48;94.90
53889;BME280;41337;51.400;-2.342;2023-08-31T12:58:41;100543.56;;;16.60;95.66
53889;BME280;41337;51.400;-2.342;2023-08-31T13:03:42;100548.88;;;16.66;94.15
53889;BME280;41337;51.400;-2.342;2023-08-31T13:08:43;100533.47;;;16.75;92.70
53889;BME280;41337;51.400;-2.342;2023-08-31T13:13:45;100531.28;;;16.65;90.89
53889;BME280;41337;51.400;-2.342;2023-08-31T13:18:45;100543.16;;;16.63;92.69
53889;BME280;41337;51.400;-2.342;2023-08-31T13:23:46;100535.19;;;16.56;93.35
53889;BME280;41337;51.400;-2.342;2023-08-31T13:28:47;100547.03;;;16.60;93.25
53889;BME280;41337;51.400;-2.342;2023-08-31T13:33:48;100543.88;;;16.25;92.64
53889;BME280;41337;51.400;-2.342;2023-08-31T13:38:49;100546.78;;;16.24;93.51
53889;BME280;41337;51.400;-2.342;2023-08-31T13:43:50;100549.03;;;16.14;94.29
53889;BME280;41337;51.400;-2.342;2023-08-31T13:48:51;100552.13;;;16.04;94.54
53889;BME280;41337;51.400;-2.342;2023-08-31T13:53:51;100551.13;;;16.12;96.45
53889;BME280;41337;51.400;-2.342;2023-08-31T13:58:53;100540.47;;;16.18;97.52
53889;BME280;41337;51.400;-2.342;2023-08-31T14:09:20;100526.28;;;16.37;99.25
53889;BME280;41337;51.400;-2.342;2023-08-31T14:14:21;100524.81;;;16.48;96.91
53889;BME280;41337;51.400;-2.342;2023-08-31T14:19:22;100535.84;;;16.45;94.02
53889;BME280;41337;51.400;-2.342;2023-08-31T14:24:23;100534.03;;;16.39;95.72
53889;BME280;41337;51.400;-2.342;2023-08-31T14:29:24;100516.44;;;16.44;97.20
53889;BME280;41337;51.400;-2.342;2023-08-31T14:34:25;100525.81;;;16.47;96.66
53889;BME280;41337;51.400;-2.342;2023-08-31T14:39:26;100536.06;;;16.43;95.92
53889;BME280;41337;51.400;-2.342;2023-08-31T14:44:29;100524.38;;;16.51;97.62
53889;BME280;41337;51.400;-2.342;2023-08-31T14:49:32;100517.63;;;16.62;97.77
53889;BME280;41337;51.400;-2.342;2023-08-31T14:54:34;100520.97;;;16.82;98.01
53889;BME280;41337;51.400;-2.342;2023-08-31T14:59:35;100517.78;;;16.98;97.74
53889;BME280;41337;51.400;-2.342;2023-08-31T15:04:36;100512.84;;;17.02;97.37
53889;BME280;41337;51.400;-2.342;2023-08-31T15:09:36;100527.84;;;16.89;94.44
53889;BME280;41337;51.400;-2.342;2023-08-31T15:14:38;100527.59;;;16.98;95.54
53889;BME280;41337;51.400;-2.342;2023-08-31T15:19:40;100533.91;;;17.03;92.38
53889;BME280;41337;51.400;-2.342;2023-08-31T15:25:10;100537.47;;;17.15;94.58
53889;BME280;41337;51.400;-2.342;2023-08-31T15:30:12;100525.00;;;17.16;95.61
53889;BME280;41337;51.400;-2.342;2023-08-31T15:35:13;100515.72;;;17.25;94.62
53889;BME280;41337;51.400;-2.342;2023-08-31T15:40:17;100509.09;;;17.34;95.77
53889;BME280;41337;51.400;-2.342;2023-08-31T15:45:18;100506.16;;;17.42;95.34
53889;BME280;41337;51.400;-2.342;2023-08-31T15:50:19;100505.31;;;17.48;95.11
53889;BME280;41337;51.400;-2.342;2023-08-31T15:55:20;100510.38;;;17.50;94.41
53889;BME280;41337;51.400;-2.342;2023-08-31T16:00:20;100512.91;;;17.69;95.31
53889;BME280;41337;51.400;-2.342;2023-08-31T16:05:22;100493.97;;;17.77;95.53
53889;BME280;41337;51.400;-2.342;2023-08-31T16:10:23;100495.13;;;18.00;95.53
53889;BME280;41337;51.400;-2.342;2023-08-31T16:15:25;100494.56;;;18.16;93.31
53889;BME280;41337;51.400;-2.342;2023-08-31T16:20:27;100501.72;;;18.15;93.11
53889;BME280;41337;51.400;-2.342;2023-08-31T16:25:28;100499.38;;;18.07;93.56
53889;BME280;41337;51.400;-2.342;2023-08-31T16:30:29;100500.25;;;18.01;93.84
53889;BME280;41337;51.400;-2.342;2023-08-31T16:35:30;100499.88;;;18.16;95.07
53889;BME280;41337;51.400;-2.342;2023-08-31T16:40:31;100499.47;;;18.31;92.92
53889;BME280;41337;51.400;-2.342;2023-08-31T16:45:32;100503.28;;;18.23;92.14
53889;BME280;41337;51.400;-2.342;2023-08-31T16:50:34;100477.41;;;18.12;93.08
53889;BME280;41337;51.400;-2.342;2023-08-31T16:55:38;100475.91;;;18.16;93.62
53889;BME280;41337;51.400;-2.342;2023-08-31T17:00:45;100481.81;;;18.18;93.12
53889;BME280;41337;51.400;-2.342;2023-08-31T17:05:51;100488.84;;;18.12;92.85
53889;BME280;41337;51.400;-2.342;2023-08-31T17:10:52;100492.25;;;18.01;93.42
53889;BME280;41337;51.400;-2.342;2023-08-31T17:15:53;100496.03;;;17.94;91.62
53889;BME280;41337;51.400;-2.342;2023-08-31T17:20:53;100494.72;;;17.85;92.16
53889;BME280;41337;51.400;-2.342;2023-08-31T17:25:56;100486.88;;;17.71;94.32
53889;BME280;41337;51.400;-2.342;2023-08-31T17:30:56;100493.66;;;17.67;94.36
53889;BME280;41337;51.400;-2.342;2023-08-31T17:35:57;100494.53;;;17.61;94.18
53889;BME280;41337;51.400;-2.342;2023-08-31T17:41:00;100496.25;;;17.49;95.72
53889;BME280;41337;51.400;-2.342;2023-08-31T17:46:01;100484.81;;;17.49;95.90
53889;BME280;41337;51.400;-2.342;2023-08-31T17:51:04;100485.91;;;17.41;96.53
53889;BME280;41337;51.400;-2.342;2023-08-31T17:56:05;100497.00;;;17.38;97.01
53889;BME280;41337;51.400;-2.342;2023-08-31T18:01:05;100501.56;;;17.31;96.92
53889;BME280;41337;51.400;-2.342;2023-08-31T18:06:06;100495.84;;;17.27;97.71
53889;BME280;41337;51.400;-2.342;2023-08-31T18:11:07;100499.56;;;17.26;98.51
53889;BME280;41337;51.400;-2.342;2023-08-31T18:16:08;100492.66;;;17.19;98.30
53889;BME280;41337;51.400;-2.342;2023-08-31T18:21:11;100497.84;;;17.14;98.35
53889;BME280;41337;51.400;-2.342;2023-08-31T18:26:12;100496.19;;;17.13;98.87
53889;BME280;41337;51.400;-2.342;2023-08-31T18:37:06;100492.94;;;17.11;100.00
53889;BME280;41337;51.400;-2.342;2023-08-31T18:42:07;100500.75;;;17.06;100.00
53889;BME280;41337;51.400;-2.342;2023-08-31T18:47:07;100501.78;;;17.05;99.18
53889;BME280;41337;51.400;-2.342;2023-08-31T18:52:08;100497.16;;;16.94;99.79
53889;BME280;41337;51.400;-2.342;2023-08-31T18:57:09;100495.53;;;16.93;100.00
53889;BME280;41337;51.400;-2.342;2023-08-31T19:02:14;100501.28;;;16.89;99.75
53889;BME280;41337;51.400;-2.342;2023-08-31T19:07:15;100505.81;;;16.82;100.00
53889;BME280;41337;51.400;-2.342;2023-08-31T19:12:16;100518.94;;;16.77;100.00
53889;BME280;41337;51.400;-2.342;2023-08-31T19:22:21;100512.84;;;16.70;100.00
53889;BME280;41337;51.400;-2.342;2023-08-31T19:27:22;100519.81;;;16.71;100.00
53889;BME280;41337;51.400;-2.342;2023-08-31T19:32:25;100524.72;;;16.68;100.00
53889;BME280;41337;51.400;-2.342;2023-08-31T19:37:30;100522.50;;;16.65;100.00
53889;BME280;41337;51.400;-2.342;2023-08-31T19:42:31;100518.19;;;16.64;100.00
53889;BME280;41337;51.400;-2.342;2023-08-31T19:47:32;100529.88;;;16.63;100.00
53889;BME280;41337;51.400;-2.342;2023-08-31T19:52:33;100512.72;;;16.59;100.00
53889;BME280;41337;51.400;-2.342;2023-08-31T19:57:34;100528.47;;;16.54;100.00
53889;BME280;41337;51.400;-2.342;2023-08-31T20:02:46;100522.56;;;16.45;100.00
53889;BME280;41337;51.400;-2.342;2023-08-31T20:07:47;100527.28;;;16.43;100.00
53889;BME280;41337;51.400;-2.342;2023-08-31T20:12:49;100532.19;;;16.39;100.00
53889;BME280;41337;51.400;-2.342;2023-08-31T20:17:50;100524.03;;;16.41;100.00
53889;BME280;41337;51.400;-2.342;2023-08-31T20:22:52;100532.81;;;16.41;100.00
53889;BME280;41337;51.400;-2.342;2023-08-31T20:27:53;100521.38;;;16.41;100.00
53889;BME280;41337;51.400;-2.342;2023-08-31T20:32:54;100532.19;;;16.39;100.00
53889;BME280;41337;51.400;-2.342;2023-08-31T20:37:55;100526.06;;;16.39;100.00
53889;BME280;41337;51.400;-2.342;2023-08-31T20:42:56;100528.13;;;16.37;100.00
53889;BME280;41337;51.400;-2.342;2023-08-31T20:48:03;100528.94;;;16.37;100.00
53889;BME280;41337;51.400;-2.342;2023-08-31T20:53:04;100523.66;;;16.37;100.00
53889;BME280;41337;51.400;-2.342;2023-08-31T20:58:05;100524.88;;;16.35;100.00
53889;BME280;41337;51.400;-2.342;2023-08-31T21:03:06;100531.59;;;16.37;100.00
53889;BME280;41337;51.400;-2.342;2023-08-31T21:08:07;100541.19;;;16.38;100.00
53889;BME280;41337;51.400;-2.342;2023-08-31T21:13:09;100536.34;;;16.29;100.00
53889;BME280;41337;51.400;-2.342;2023-08-31T21:18:09;100540.84;;;16.28;100.00
53889;BME280;41337;51.400;-2.342;2023-08-31T21:23:10;100546.16;;;16.28;100.00
53889;BME280;41337;51.400;-2.342;2023-08-31T21:28:13;100542.66;;;16.28;100.00
53889;BME280;41337;51.400;-2.342;2023-08-31T21:33:14;100544.91;;;16.31;100.00
53889;BME280;41337;51.400;-2.342;2023-08-31T21:38:18;100536.59;;;16.21;100.00
53889;BME280;41337;51.400;-2.342;2023-08-31T21:43:19;100538.22;;;16.15;100.00
53889;BME280;41337;51.400;-2.342;2023-08-31T21:48:20;100533.53;;;16.11;100.00
53889;BME280;41337;51.400;-2.342;2023-08-31T21:53:21;100534.16;;;16.06;100.00
53889;BME280;41337;51.400;-2.342;2023-08-31T21:58:23;100529.28;;;16.03;100.00
53889;BME280;41337;51.400;-2.342;2023-08-31T22:03:24;100535.63;;;16.02;100.00
53889;BME280;41337;51.400;-2.342;2023-08-31T22:08:25;100529.06;;;16.05;100.00
53889;BME280;41337;51.400;-2.342;2023-08-31T22:13:27;100534.78;;;16.08;100.00
53889;BME280;41337;51.400;-2.342;2023-08-31T22:18:27;100523.75;;;16.05;100.00
53889;BME280;41337;51.400;-2.342;2023-08-31T22:23:31;100521.13;;;15.98;100.00
53889;BME280;41337;51.400;-2.342;2023-08-31T22:28:41;100515.44;;;15.94;100.00
53889;BME280;41337;51.400;-2.342;2023-08-31T22:33:42;100519.91;;;15.94;100.00
53889;BME280;41337;51.400;-2.342;2023-08-31T22:38:46;100525.22;;;15.94;100.00
53889;BME280;41337;51.400;-2.342;2023-08-31T22:43:47;100533.63;;;15.91;100.00
53889;BME280;41337;51.400;-2.342;2023-08-31T22:48:48;100533.19;;;15.87;100.00
53889;BME280;41337;51.400;-2.342;2023-08-31T22:53:51;100542.19;;;15.86;100.00
53889;BME280;41337;51.400;-2.342;2023-08-31T22:58:52;100542.19;;;15.80;100.00
53889;BME280;41337;51.400;-2.342;2023-08-31T23:03:53;100539.34;;;15.81;100.00
53889;BME280;41337;51.400;-2.342;2023-08-31T23:08:54;100535.44;;;15.84;100.00
53889;BME280;41337;51.400;-2.342;2023-08-31T23:13:55;100530.53;;;15.87;100.00
53889;BME280;41337;51.400;-2.342;2023-08-31T23:18:56;100538.09;;;15.90;100.00
53889;BME280;41337;51.400;-2.342;2023-08-31T23:23:57;100530.97;;;15.91;100.00
53889;BME280;41337;51.400;-2.342;2023-08-31T23:28:58;100530.38;;;15.82;100.00
53889;BME280;41337;51.400;-2.342;2023-08-31T23:33:59;100535.44;;;15.84;100.00
53889;BME280;41337;51.400;-2.342;2023-08-31T23:39:00;100543.22;;;15.85;100.00
53889;BME280;41337;51.400;-2.342;2023-08-31T23:44:01;100538.91;;;15.84;100.00
53889;BME280;41337;51.400;-2.342;2023-08-31T23:49:03;100536.06;;;15.79;100.00
53889;BME280;41337;51.400;-2.342;2023-08-31T23:54:04;100534.22;;;15.80;100.00
53889;BME280;41337;51.400;-2.342;2023-08-31T23:59:05;100531.59;;;15.80;100.00
